sensor_id;sensor_type;location;lat;lon;timestamp;pressure;altitude;pressure_sealevel;temperature;humidity
71996;BME280;59862;47.732;7.346;2023-12-07T00:01:18;98466.64;;;2.13;100.00
71996;BME280;59862;47.732;7.346;2023-12-07T00:03:46;98469.55;;;2.10;100.00
71996;BME280;59862;47.732;7.346;2023-12-07T00:06:13;98462.78;;;2.00;100.00
71996;BME280;59862;47.732;7.346;2023-12-07T00:08:40;98464.84;;;1.97;100.00
71996;BME280;59862;47.732;7.346;2023-12-07T00:11:08;98466.50;;;1.98;100.00
71996;BME280;59862;47.732;7.346;2023-12-07T00:13:35;98470.59;;;2.02;100.00
71996;BME280;59862;47.732;7.346;2023-12-07T00:16:03;98463.26;;;2.00;100.00
71996;BME280;59862;47.732;7.346;2023-12-07T00:18:30;98459.55;;;1.97;100.00
71996;BME280;59862;47.732;7.346;2023-12-07T00:20:58;98463.73;;;1.94;100.00
71996;BME280;59862;47.732;7.346;2023-12-07T00:23:25;98465.77;;;1.85;100.00
71996;BME280;59862;47.732;7.346;2023-12-07T00:25:53;98464.16;;;1.71;100.00
71996;BME280;59862;47.732;7.346;2023-12-07T00:28:20;98477.02;;;1.65;100.00
71996;BME280;59862;47.732;7.346;2023-12-07T00:30:47;98468.73;;;1.64;100.00
71996;BME280;59862;47.732;7.346;2023-12-07T00:33:15;98475.44;;;1.57;100.00
71996;BME280;59862;47.732;7.346;2023-12-07T00:35:43;98476.64;;;1.52;100.00
71996;BME280;59862;47.732;7.346;2023-12-07T00:38:10;98481.80;;;1.48;100.00
71996;BME280;59862;47.732;7.346;2023-12-07T00:40:38;98485.72;;;1.37;100.00
71996;BME280;59862;47.732;7.346;2023-12-07T00:43:07;98488.78;;;1.26;100.00
71996;BME280;59862;47.732;7.346;2023-12-07T00:45:34;98495.65;;;1.28;100.00
71996;BME280;59862;47.732;7.346;2023-12-07T00:48:02;98500.94;;;1.28;100.00
71996;BME280;59862;47.732;7.346;2023-12-07T00:50:29;98492.73;;;1.15;100.00
71996;BME280;59862;47.732;7.346;2023-12-07T00:52:56;98494.80;;;1.04;100.00
71996;BME280;59862;47.732;7.346;2023-12-07T00:55:24;98489.64;;;1.03;100.00
71996;BME280;59862;47.732;7.346;2023-12-07T00:57:51;98488.06;;;1.00;100.00
71996;BME280;59862;47.732;7.346;2023-12-07T01:00:19;98490.22;;;0.95;100.00
71996;BME280;59862;47.732;7.346;2023-12-07T01:02:46;98495.30;;;0.80;100.00
71996;BME280;59862;47.732;7.346;2023-12-07T01:05:13;98496.42;;;0.70;100.00
71996;BME280;59862;47.732;7.346;2023-12-07T01:07:41;98498.00;;;0.73;100.00
71996;BME280;59862;47.732;7.346;2023-12-07T01:10:08;98493.91;;;0.69;100.00
71996;BME280;59862;47.732;7.346;2023-12-07T01:12:36;98493.44;;;0.57;100.00
71996;BME280;59862;47.732;7.346;2023-12-07T01:15:04;98503.83;;;0.47;100.00
71996;BME280;59862;47.732;7.346;2023-12-07T01:17:31;98510.22;;;0.38;100.00
71996;BME280;59862;47.732;7.346;2023-12-07T01:19:59;98510.86;;;0.29;100.00
71996;BME280;59862;47.732;7.346;2023-12-07T01:22:26;98515.88;;;0.26;100.00
71996;BME280;59862;47.732;7.346;2023-12-07T01:24:54;98510.13;;;0.27;100.00
71996;BME280;59862;47.732;7.346;2023-12-07T01:27:21;98519.61;;;0.42;100.00
71996;BME280;59862;47.732;7.346;2023-12-07T01:29:49;98509.44;;;0.43;100.00
71996;BME280;59862;47.732;7.346;2023-12-07T01:32:16;98509.63;;;0.40;100.00
71996;BME280;59862;47.732;7.346;2023-12-07T01:34:44;98518.88;;;0.40;100.00
71996;BME280;59862;47.732;7.346;2023-12-07T01:37:12;98508.84;;;0.45;100.00
71996;BME280;59862;47.732;7.346;2023-12-07T01:39:41;98511.34;;;0.41;100.00
71996;BME280;59862;47.732;7.346;2023-12-07T01:42:09;98516.64;;;0.46;100.00
71996;BME280;59862;47.732;7.346;2023-12-07T01:44:39;98509.34;;;0.50;100.00
71996;BME280;59862;47.732;7.346;2023-12-07T01:47:07;98502.73;;;0.50;100.00
71996;BME280;59862;47.732;7.346;2023-12-07T01:49:37;98508.02;;;0.50;100.00
71996;BME280;59862;47.732;7.346;2023-12-07T01:52:06;98502.21;;;0.57;100.00
71996;BME280;59862;47.732;7.346;2023-12-07T01:54:34;98506.50;;;0.53;100.00
71996;BME280;59862;47.732;7.346;2023-12-07T01:57:03;98507.79;;;0.47;100.00
71996;BME280;59862;47.732;7.346;2023-12-07T01:59:30;98518.55;;;0.44;100.00
71996;BME280;59862;47.732;7.346;2023-12-07T02:01:58;98516.85;;;0.56;100.00
71996;BME280;59862;47.732;7.346;2023-12-07T02:04:25;98515.53;;;0.56;100.00
71996;BME280;59862;47.732;7.346;2023-12-07T02:06:55;98507.61;;;0.56;100.00
71996;BME280;59862;47.732;7.346;2023-12-07T02:09:24;98512.75;;;0.52;100.00
71996;BME280;59862;47.732;7.346;2023-12-07T02:11:52;98521.02;;;0.53;100.00
71996;BME280;59862;47.732;7.346;2023-12-07T02:14:20;98519.28;;;0.46;100.00
71996;BME280;59862;47.732;7.346;2023-12-07T02:16:57;98521.95;;;0.34;100.00
71996;BME280;59862;47.732;7.346;2023-12-07T02:19:45;98523.06;;;0.37;100.00
71996;BME280;59862;47.732;7.346;2023-12-07T02:22:12;98517.61;;;0.33;100.00
71996;BME280;59862;47.732;7.346;2023-12-07T02:24:42;98520.96;;;0.17;100.00
71996;BME280;59862;47.732;7.346;2023-12-07T02:27:09;98524.66;;;0.14;100.00
71996;BME280;59862;47.732;7.346;2023-12-07T02:29:37;98521.75;;;0.12;100.00
71996;BME280;59862;47.732;7.346;2023-12-07T02:32:04;98521.16;;;0.14;100.00
71996;BME280;59862;47.732;7.346;2023-12-07T02:34:32;98520.70;;;0.14;100.00
71996;BME280;59862;47.732;7.346;2023-12-07T02:36:59;98518.59;;;0.19;100.00
71996;BME280;59862;47.732;7.346;2023-12-07T02:39:28;98521.16;;;0.14;100.00
71996;BME280;59862;47.732;7.346;2023-12-07T02:41:56;98518.95;;;0.08;100.00
71996;BME280;59862;47.732;7.346;2023-12-07T02:44:24;98524.70;;;0.07;100.00
71996;BME280;59862;47.732;7.346;2023-12-07T02:46:52;98513.52;;;0.04;100.00
71996;BME280;59862;47.732;7.346;2023-12-07T02:49:19;98509.19;;;0.03;100.00
71996;BME280;59862;47.732;7.346;2023-12-07T02:51:47;98523.84;;;0.07;100.00
71996;BME280;59862;47.732;7.346;2023-12-07T02:54:14;98522.29;;;0.04;100.00
71996;BME280;59862;47.732;7.346;2023-12-07T02:56:42;98511.90;;;-0.05;100.00
71996;BME280;59862;47.732;7.346;2023-12-07T02:59:09;98510.62;;;-0.12;100.00
71996;BME280;59862;47.732;7.346;2023-12-07T03:01:36;98509.88;;;-0.14;100.00
71996;BME280;59862;47.732;7.346;2023-12-07T03:04:04;98517.41;;;-0.15;100.00
71996;BME280;59862;47.732;7.346;2023-12-07T03:06:31;98518.11;;;-0.06;100.00
71996;BME280;59862;47.732;7.346;2023-12-07T03:08:59;98525.08;;;0.08;100.00
71996;BME280;59862;47.732;7.346;2023-12-07T03:11:26;98521.16;;;0.14;100.00
71996;BME280;59862;47.732;7.346;2023-12-07T03:13:53;98519.21;;;0.23;100.00
71996;BME280;59862;47.732;7.346;2023-12-07T03:16:21;98518.48;;;0.21;100.00
71996;BME280;59862;47.732;7.346;2023-12-07T03:18:48;98517.11;;;0.28;100.00
71996;BME280;59862;47.732;7.346;2023-12-07T03:21:16;98520.83;;;0.31;100.00
71996;BME280;59862;47.732;7.346;2023-12-07T03:23:43;98521.25;;;0.37;100.00
71996;BME280;59862;47.732;7.346;2023-12-07T03:26:11;98515.17;;;0.42;100.00
71996;BME280;59862;47.732;7.346;2023-12-07T03:28:38;98506.38;;;0.54;100.00
71996;BME280;59862;47.732;7.346;2023-12-07T03:31:06;98511.45;;;0.57;100.00
71996;BME280;59862;47.732;7.346;2023-12-07T03:33:33;98501.51;;;0.61;100.00
71996;BME280;59862;47.732;7.346;2023-12-07T03:36:01;98508.88;;;0.50;100.00
71996;BME280;59862;47.732;7.346;2023-12-07T03:38:28;98501.07;;;0.49;100.00
71996;BME280;59862;47.732;7.346;2023-12-07T03:40:56;98501.28;;;0.46;100.00
71996;BME280;59862;47.732;7.346;2023-12-07T03:43:23;98507.58;;;0.38;100.00
71996;BME280;59862;47.732;7.346;2023-12-07T03:45:50;98506.02;;;0.23;100.00
71996;BME280;59862;47.732;7.346;2023-12-07T03:48:18;98509.34;;;0.07;100.00
71996;BME280;59862;47.732;7.346;2023-12-07T03:50:46;98506.81;;;0.05;100.00
71996;BME280;59862;47.732;7.346;2023-12-07T03:53:13;98505.61;;;0.04;100.00
71996;BME280;59862;47.732;7.346;2023-12-07T03:55:41;98500.03;;;-0.05;100.00
71996;BME280;59862;47.732;7.346;2023-12-07T03:58:08;98495.49;;;-0.03;100.00
71996;BME280;59862;47.732;7.346;2023-12-07T04:00:35;98497.85;;;0.08;100.00
71996;BME280;59862;47.732;7.346;2023-12-07T04:03:03;98498.97;;;0.11;100.00
71996;BME280;59862;47.732;7.346;2023-12-07T04:05:31;98498.48;;;0.24;100.00
71996;BME280;59862;47.732;7.346;2023-12-07T04:07:58;98497.23;;;0.35;100.00
71996;BME280;59862;47.732;7.346;2023-12-07T04:10:26;98493.45;;;0.39;100.00
71996;BME280;59862;47.732;7.346;2023-12-07T04:12:54;98496.97;;;0.45;100.00
71996;BME280;59862;47.732;7.346;2023-12-07T04:15:21;98496.41;;;0.52;100.00
71996;BME280;59862;47.732;7.346;2023-12-07T04:17:50;98501.30;;;0.64;100.00
71996;BME280;59862;47.732;7.346;2023-12-07T04:20:19;98501.03;;;0.61;100.00
71996;BME280;59862;47.732;7.346;2023-12-07T04:22:46;98516.00;;;0.55;100.00
71996;BME280;59862;47.732;7.346;2023-12-07T04:25:14;98513.59;;;0.70;100.00
71996;BME280;59862;47.732;7.346;2023-12-07T04:27:41;98524.11;;;0.83;100.00
71996;BME280;59862;47.732;7.346;2023-12-07T04:30:09;98522.13;;;0.74;100.00
71996;BME280;59862;47.732;7.346;2023-12-07T04:32:36;98523.42;;;0.68;100.00
71996;BME280;59862;47.732;7.346;2023-12-07T04:35:05;98520.62;;;0.83;100.00
71996;BME280;59862;47.732;7.346;2023-12-07T04:37:33;98523.78;;;0.88;100.00
71996;BME280;59862;47.732;7.346;2023-12-07T04:40:00;98521.92;;;0.95;100.00
71996;BME280;59862;47.732;7.346;2023-12-07T04:42:29;98523.27;;;1.01;100.00
71996;BME280;59862;47.732;7.346;2023-12-07T04:44:56;98523.14;;;1.02;100.00
71996;BME280;59862;47.732;7.346;2023-12-07T04:47:24;98510.66;;;1.04;100.00
71996;BME280;59862;47.732;7.346;2023-12-07T04:49:51;98510.66;;;1.04;100.00
71996;BME280;59862;47.732;7.346;2023-12-07T04:52:19;98514.93;;;1.12;100.00
71996;BME280;59862;47.732;7.346;2023-12-07T04:54:46;98514.09;;;1.17;100.00
71996;BME280;59862;47.732;7.346;2023-12-07T04:57:15;98508.46;;;1.16;100.00
71996;BME280;59862;47.732;7.346;2023-12-07T04:59:43;98509.73;;;1.11;100.00
71996;BME280;59862;47.732;7.346;2023-12-07T05:02:16;98505.63;;;1.07;100.00
71996;BME280;59862;47.732;7.346;2023-12-07T05:04:45;98504.62;;;1.15;100.00
71996;BME280;59862;47.732;7.346;2023-12-07T05:07:13;98501.28;;;1.00;100.00
71996;BME280;59862;47.732;7.346;2023-12-07T05:09:41;98498.77;;;1.04;100.00
71996;BME280;59862;47.732;7.346;2023-12-07T05:12:09;98500.82;;;1.06;100.00
71996;BME280;59862;47.732;7.346;2023-12-07T05:14:36;98502.98;;;1.01;100.00
71996;BME280;59862;47.732;7.346;2023-12-07T05:17:04;98505.48;;;0.97;100.00
71996;BME280;59862;47.732;7.346;2023-12-07T05:19:31;98505.30;;;0.88;100.00
71996;BME280;59862;47.732;7.346;2023-12-07T05:21:58;98507.33;;;0.84;100.00
71996;BME280;59862;47.732;7.346;2023-12-07T05:24:26;98507.73;;;0.78;100.00
71996;BME280;59862;47.732;7.346;2023-12-07T05:26:54;98508.95;;;0.61;100.00
71996;BME280;59862;47.732;7.346;2023-12-07T05:29:22;98513.39;;;0.61;100.00
71996;BME280;59862;47.732;7.346;2023-12-07T05:31:50;98513.30;;;0.50;100.00
71996;BME280;59862;47.732;7.346;2023-12-07T05:34:18;98527.62;;;0.53;100.00
71996;BME280;59862;47.732;7.346;2023-12-07T05:36:45;98518.23;;;0.49;100.00
71996;BME280;59862;47.732;7.346;2023-12-07T05:39:13;98520.43;;;0.55;100.00
71996;BME280;59862;47.732;7.346;2023-12-07T05:41:43;98515.09;;;0.62;100.00
71996;BME280;59862;47.732;7.346;2023-12-07T05:44:12;98530.37;;;0.51;100.00
71996;BME280;59862;47.732;7.346;2023-12-07T05:46:39;98532.16;;;0.51;100.00
71996;BME280;59862;47.732;7.346;2023-12-07T05:49:08;98530.55;;;0.43;100.00
71996;BME280;59862;47.732;7.346;2023-12-07T05:51:36;98528.59;;;0.52;100.00
71996;BME280;59862;47.732;7.346;2023-12-07T05:54:03;98531.78;;;0.50;100.00
71996;BME280;59862;47.732;7.346;2023-12-07T05:56:31;98537.45;;;0.51;100.00
71996;BME280;59862;47.732;7.346;2023-12-07T05:58:58;98542.19;;;0.46;100.00
71996;BME280;59862;47.732;7.346;2023-12-07T06:01:26;98545.52;;;0.55;100.00
71996;BME280;59862;47.732;7.346;2023-12-07T06:03:53;98548.94;;;0.50;100.00
71996;BME280;59862;47.732;7.346;2023-12-07T06:06:21;98543.42;;;0.47;100.00
71996;BME280;59862;47.732;7.346;2023-12-07T06:08:49;98552.08;;;0.49;100.00
71996;BME280;59862;47.732;7.346;2023-12-07T06:11:16;98551.55;;;0.44;100.00
71996;BME280;59862;47.732;7.346;2023-12-07T06:13:44;98553.08;;;0.54;100.00
71996;BME280;59862;47.732;7.346;2023-12-07T06:16:12;98550.84;;;0.48;100.00
71996;BME280;59862;47.732;7.346;2023-12-07T06:18:45;98548.44;;;0.45;100.00
71996;BME280;59862;47.732;7.346;2023-12-07T06:21:14;98545.66;;;0.41;100.00
71996;BME280;59862;47.732;7.346;2023-12-07T06:23:41;98542.48;;;0.36;100.00
71996;BME280;59862;47.732;7.346;2023-12-07T06:26:09;98537.69;;;0.23;100.00
71996;BME280;59862;47.732;7.346;2023-12-07T06:28:36;98547.34;;;0.17;100.00
71996;BME280;59862;47.732;7.346;2023-12-07T06:31:07;98545.18;;;0.04;100.00
71996;BME280;59862;47.732;7.346;2023-12-07T06:33:35;98535.98;;;-0.04;100.00
71996;BME280;59862;47.732;7.346;2023-12-07T06:36:02;98525.67;;;-0.07;100.00
71996;BME280;59862;47.732;7.346;2023-12-07T06:38:30;98520.44;;;-0.14;100.00
71996;BME280;59862;47.732;7.346;2023-12-07T06:40:57;98506.16;;;-0.24;100.00
71996;BME280;59862;47.732;7.346;2023-12-07T06:43:24;98503.88;;;-0.16;100.00
71996;BME280;59862;47.732;7.346;2023-12-07T06:45:52;98508.76;;;-0.29;100.00
71996;BME280;59862;47.732;7.346;2023-12-07T06:48:20;98511.28;;;-0.28;100.00
71996;BME280;59862;47.732;7.346;2023-12-07T06:50:47;98518.26;;;-0.27;100.00
71996;BME280;59862;47.732;7.346;2023-12-07T06:53:14;98518.22;;;-0.20;100.00
71996;BME280;59862;47.732;7.346;2023-12-07T06:55:42;98518.11;;;-0.18;100.00
71996;BME280;59862;47.732;7.346;2023-12-07T06:58:10;98518.69;;;-0.08;100.00
71996;BME280;59862;47.732;7.346;2023-12-07T07:00:37;98526.29;;;-0.03;100.00
71996;BME280;59862;47.732;7.346;2023-12-07T07:03:05;98518.41;;;0.03;100.00
71996;BME280;59862;47.732;7.346;2023-12-07T07:05:32;98530.67;;;0.04;100.00
71996;BME280;59862;47.732;7.346;2023-12-07T07:07:59;98537.00;;;0.01;100.00
71996;BME280;59862;47.732;7.346;2023-12-07T07:10:27;98532.11;;;0.02;100.00
71996;BME280;59862;47.732;7.346;2023-12-07T07:12:54;98529.47;;;0.02;100.00
71996;BME280;59862;47.732;7.346;2023-12-07T07:15:22;98522.69;;;-0.02;100.00
71996;BME280;59862;47.732;7.346;2023-12-07T07:17:51;98535.95;;;0.04;100.00
71996;BME280;59862;47.732;7.346;2023-12-07T07:20:18;98546.61;;;0.15;100.00
71996;BME280;59862;47.732;7.346;2023-12-07T07:22:47;98541.10;;;0.18;100.00
71996;BME280;59862;47.732;7.346;2023-12-07T07:25:15;98533.25;;;0.23;100.00
71996;BME280;59862;47.732;7.346;2023-12-07T07:27:45;98530.09;;;0.06;100.00
71996;BME280;59862;47.732;7.346;2023-12-07T07:30:12;98529.73;;;0.17;100.00
71996;BME280;59862;47.732;7.346;2023-12-07T07:32:40;98515.20;;;0.30;100.00
71996;BME280;59862;47.732;7.346;2023-12-07T07:35:08;98505.28;;;0.21;100.00
71996;BME280;59862;47.732;7.346;2023-12-07T07:37:38;98504.70;;;0.23;100.00
71996;BME280;59862;47.732;7.346;2023-12-07T07:40:06;98493.33;;;0.40;100.00
71996;BME280;59862;47.732;7.346;2023-12-07T07:42:34;98502.25;;;0.45;100.00
71996;BME280;59862;47.732;7.346;2023-12-07T07:45:01;98503.86;;;0.53;100.00
71996;BME280;59862;47.732;7.346;2023-12-07T07:47:29;98507.55;;;0.50;100.00
71996;BME280;59862;47.732;7.346;2023-12-07T07:49:56;98508.81;;;0.57;100.00
71996;BME280;59862;47.732;7.346;2023-12-07T07:52:25;98507.55;;;0.50;100.00
71996;BME280;59862;47.732;7.346;2023-12-07T07:54:52;98461.31;;;0.27;100.00
71996;BME280;59862;47.732;7.346;2023-12-07T07:57:19;98505.99;;;0.66;100.00
71996;BME280;59862;47.732;7.346;2023-12-07T07:59:47;98504.41;;;0.63;100.00
71996;BME280;59862;47.732;7.346;2023-12-07T08:02:14;98502.70;;;0.75;100.00
71996;BME280;59862;47.732;7.346;2023-12-07T08:04:42;98500.13;;;0.68;100.00
71996;BME280;59862;47.732;7.346;2023-12-07T08:07:09;98493.50;;;0.62;100.00
71996;BME280;59862;47.732;7.346;2023-12-07T08:09:37;98446.76;;;0.39;100.00
71996;BME280;59862;47.732;7.346;2023-12-07T08:12:06;98492.67;;;0.67;100.00
71996;BME280;59862;47.732;7.346;2023-12-07T08:14:38;98480.80;;;0.91;100.00
71996;BME280;59862;47.732;7.346;2023-12-07T08:17:06;98487.58;;;0.77;100.00
71996;BME280;59862;47.732;7.346;2023-12-07T08:19:34;98486.66;;;0.84;100.00
71996;BME280;59862;47.732;7.346;2023-12-07T08:22:02;98480.80;;;0.91;100.00
71996;BME280;59862;47.732;7.346;2023-12-07T08:24:29;98479.68;;;0.83;100.00
71996;BME280;59862;47.732;7.346;2023-12-07T08:26:56;98481.05;;;0.88;100.00
71996;BME280;59862;47.732;7.346;2023-12-07T08:29:24;98485.41;;;0.95;100.00
71996;BME280;59862;47.732;7.346;2023-12-07T08:31:52;98481.78;;;1.14;100.00
71996;BME280;59862;47.732;7.346;2023-12-07T08:34:19;98488.77;;;1.20;100.00
71996;BME280;59862;47.732;7.346;2023-12-07T08:36:47;98486.99;;;1.26;100.00
71996;BME280;59862;47.732;7.346;2023-12-07T08:39:14;98493.77;;;1.36;100.00
71996;BME280;59862;47.732;7.346;2023-12-07T08:41:41;98496.16;;;1.33;100.00
71996;BME280;59862;47.732;7.346;2023-12-07T08:44:09;98498.13;;;1.42;100.00
71996;BME280;59862;47.732;7.346;2023-12-07T08:46:37;98504.14;;;1.44;100.00
71996;BME280;59862;47.732;7.346;2023-12-07T08:49:05;98503.88;;;1.42;100.00
71996;BME280;59862;47.732;7.346;2023-12-07T08:51:32;98496.69;;;1.49;100.00
71996;BME280;59862;47.732;7.346;2023-12-07T08:54:01;98494.67;;;1.59;100.00
71996;BME280;59862;47.732;7.346;2023-12-07T08:56:28;98488.73;;;1.73;100.00
71996;BME280;59862;47.732;7.346;2023-12-07T08:58:55;98477.05;;;1.76;100.00
71996;BME280;59862;47.732;7.346;2023-12-07T09:01:23;98478.15;;;1.79;100.00
71996;BME280;59862;47.732;7.346;2023-12-07T09:03:50;98479.14;;;2.00;100.00
71996;BME280;59862;47.732;7.346;2023-12-07T09:06:18;98456.17;;;2.28;100.00
71996;BME280;59862;47.732;7.346;2023-12-07T09:08:45;98458.72;;;2.18;100.00
71996;BME280;59862;47.732;7.346;2023-12-07T09:11:12;98448.11;;;2.35;100.00
71996;BME280;59862;47.732;7.346;2023-12-07T09:13:40;98442.93;;;2.28;100.00
71996;BME280;59862;47.732;7.346;2023-12-07T09:16:07;98440.92;;;2.85;100.00
71996;BME280;59862;47.732;7.346;2023-12-07T09:18:35;98438.59;;;3.03;100.00
71996;BME280;59862;47.732;7.346;2023-12-07T09:21:03;98447.42;;;3.19;100.00
71996;BME280;59862;47.732;7.346;2023-12-07T09:23:32;98448.28;;;3.45;100.00
71996;BME280;59862;47.732;7.346;2023-12-07T09:25:59;98448.73;;;3.71;100.00
71996;BME280;59862;47.732;7.346;2023-12-07T09:28:26;98449.97;;;3.67;100.00
71996;BME280;59862;47.732;7.346;2023-12-07T09:30:54;98457.48;;;3.10;100.00
71996;BME280;59862;47.732;7.346;2023-12-07T09:33:21;98448.94;;;3.58;100.00
71996;BME280;59862;47.732;7.346;2023-12-07T09:35:49;98435.34;;;4.08;100.00
71996;BME280;59862;47.732;7.346;2023-12-07T09:38:16;98441.41;;;3.84;100.00
71996;BME280;59862;47.732;7.346;2023-12-07T09:40:45;98455.15;;;3.89;100.00
71996;BME280;59862;47.732;7.346;2023-12-07T09:43:13;98455.73;;;3.72;100.00
71996;BME280;59862;47.732;7.346;2023-12-07T09:45:41;98454.52;;;2.86;100.00
71996;BME280;59862;47.732;7.346;2023-12-07T09:48:08;98458.88;;;3.19;100.00
71996;BME280;59862;47.732;7.346;2023-12-07T09:50:36;98458.27;;;3.27;100.00
71996;BME280;59862;47.732;7.346;2023-12-07T09:53:03;98449.89;;;3.57;100.00
71996;BME280;59862;47.732;7.346;2023-12-07T09:55:31;98449.84;;;3.89;100.00
71996;BME280;59862;47.732;7.346;2023-12-07T09:57:59;98453.39;;;3.58;100.00
71996;BME280;59862;47.732;7.346;2023-12-07T10:00:27;98455.65;;;3.68;100.00
71996;BME280;59862;47.732;7.346;2023-12-07T10:02:55;98452.34;;;3.55;100.00
71996;BME280;59862;47.732;7.346;2023-12-07T10:05:22;98457.47;;;3.36;100.00
71996;BME280;59862;47.732;7.346;2023-12-07T10:07:50;98452.25;;;2.87;100.00
71996;BME280;59862;47.732;7.346;2023-12-07T10:10:18;98448.14;;;2.94;100.00
71996;BME280;59862;47.732;7.346;2023-12-07T10:12:56;98439.98;;;2.81;100.00
71996;BME280;59862;47.732;7.346;2023-12-07T10:15:25;98438.01;;;2.88;100.00
71996;BME280;59862;47.732;7.346;2023-12-07T10:17:56;98441.34;;;3.07;100.00
71996;BME280;59862;47.732;7.346;2023-12-07T10:20:26;98435.82;;;3.31;100.00
71996;BME280;59862;47.732;7.346;2023-12-07T10:23:08;98436.11;;;3.43;100.00
71996;BME280;59862;47.732;7.346;2023-12-07T10:25:40;98430.32;;;3.23;100.00
71996;BME280;59862;47.732;7.346;2023-12-07T10:28:09;98421.70;;;3.10;100.00
71996;BME280;59862;47.732;7.346;2023-12-07T10:30:40;98416.06;;;2.97;100.00
71996;BME280;59862;47.732;7.346;2023-12-07T10:33:08;98416.13;;;3.13;100.00
71996;BME280;59862;47.732;7.346;2023-12-07T10:35:46;98407.31;;;3.38;100.00
71996;BME280;59862;47.732;7.346;2023-12-07T10:38:16;98394.30;;;3.61;100.00
71996;BME280;59862;47.732;7.346;2023-12-07T10:40:46;98383.61;;;3.52;100.00
71996;BME280;59862;47.732;7.346;2023-12-07T10:43:15;98367.55;;;3.53;100.00
71996;BME280;59862;47.732;7.346;2023-12-07T10:45:43;98366.84;;;3.72;100.00
71996;BME280;59862;47.732;7.346;2023-12-07T10:48:12;98364.05;;;3.73;100.00
71996;BME280;59862;47.732;7.346;2023-12-07T10:50:46;98365.74;;;3.74;100.00
71996;BME280;59862;47.732;7.346;2023-12-07T10:53:24;98370.03;;;3.81;100.00
71996;BME280;59862;47.732;7.346;2023-12-07T10:56:01;98369.75;;;3.69;100.00
71996;BME280;59862;47.732;7.346;2023-12-07T10:58:29;98360.58;;;3.32;100.00
71996;BME280;59862;47.732;7.346;2023-12-07T11:00:57;98342.32;;;3.44;100.00
71996;BME280;59862;47.732;7.346;2023-12-07T11:03:26;98339.52;;;3.10;100.00
71996;BME280;59862;47.732;7.346;2023-12-07T11:05:55;98323.70;;;3.14;100.00
71996;BME280;59862;47.732;7.346;2023-12-07T11:08:50;98325.45;;;3.24;100.00
71996;BME280;59862;47.732;7.346;2023-12-07T11:14:09;98302.70;;;3.67;100.00
71996;BME280;59862;47.732;7.346;2023-12-07T11:16:35;98293.87;;;3.72;100.00
71996;BME280;59862;47.732;7.346;2023-12-07T11:19:03;98287.78;;;3.51;100.00
71996;BME280;59862;47.732;7.346;2023-12-07T11:21:31;98290.20;;;3.88;100.00
71996;BME280;59862;47.732;7.346;2023-12-07T11:24:01;98289.97;;;3.76;100.00
71996;BME280;59862;47.732;7.346;2023-12-07T11:26:30;98284.30;;;3.45;100.00
71996;BME280;59862;47.732;7.346;2023-12-07T11:28:58;98293.77;;;3.83;100.00
71996;BME280;59862;47.732;7.346;2023-12-07T11:31:26;98283.51;;;3.69;100.00
71996;BME280;59862;47.732;7.346;2023-12-07T11:33:54;98280.55;;;3.62;100.00
71996;BME280;59862;47.732;7.346;2023-12-07T11:36:21;98282.02;;;3.61;100.00
71996;BME280;59862;47.732;7.346;2023-12-07T11:41:46;98285.71;;;3.64;100.00
71996;BME280;59862;47.732;7.346;2023-12-07T11:44:14;98293.36;;;3.42;100.00
71996;BME280;59862;47.732;7.346;2023-12-07T11:46:41;98283.18;;;3.53;100.00
71996;BME280;59862;47.732;7.346;2023-12-07T11:49:09;98279.27;;;3.72;100.00
71996;BME280;59862;47.732;7.346;2023-12-07T11:51:37;98280.86;;;3.69;100.00
71996;BME280;59862;47.732;7.346;2023-12-07T11:54:05;98276.41;;;3.54;100.00
71996;BME280;59862;47.732;7.346;2023-12-07T11:56:34;98283.21;;;4.02;100.00
71996;BME280;59862;47.732;7.346;2023-12-07T11:59:02;98272.81;;;3.65;100.00
71996;BME280;59862;47.732;7.346;2023-12-07T12:01:29;98262.33;;;3.78;100.00
71996;BME280;59862;47.732;7.346;2023-12-07T12:03:56;98253.64;;;4.01;100.00
71996;BME280;59862;47.732;7.346;2023-12-07T12:06:24;98246.38;;;4.37;100.00
71996;BME280;59862;47.732;7.346;2023-12-07T12:08:52;98247.03;;;4.20;100.00
71996;BME280;59862;47.732;7.346;2023-12-07T12:11:20;98247.95;;;4.25;100.00
71996;BME280;59862;47.732;7.346;2023-12-07T12:13:48;98254.05;;;4.40;100.00
71996;BME280;59862;47.732;7.346;2023-12-07T12:16:16;98254.42;;;4.07;100.00
71996;BME280;59862;47.732;7.346;2023-12-07T12:18:43;98255.70;;;3.88;100.00
71996;BME280;59862;47.732;7.346;2023-12-07T12:21:11;98257.73;;;3.90;100.00
71996;BME280;59862;47.732;7.346;2023-12-07T12:23:38;98257.77;;;3.60;100.00
71996;BME280;59862;47.732;7.346;2023-12-07T12:26:08;98252.30;;;3.52;100.00
71996;BME280;59862;47.732;7.346;2023-12-07T12:28:37;98249.29;;;3.91;100.00
71996;BME280;59862;47.732;7.346;2023-12-07T12:31:06;98250.61;;;3.81;100.00
71996;BME280;59862;47.732;7.346;2023-12-07T12:33:36;98244.20;;;3.93;100.00
71996;BME280;59862;47.732;7.346;2023-12-07T12:36:06;98240.61;;;4.23;100.00
71996;BME280;59862;47.732;7.346;2023-12-07T12:38:34;98220.84;;;4.21;100.00
71996;BME280;59862;47.732;7.346;2023-12-07T12:41:02;98205.69;;;4.37;100.00
71996;BME280;59862;47.732;7.346;2023-12-07T12:43:32;98188.47;;;4.50;100.00
71996;BME280;59862;47.732;7.346;2023-12-07T12:46:00;98192.20;;;4.96;100.00
71996;BME280;59862;47.732;7.346;2023-12-07T12:48:27;98181.50;;;5.15;100.00
71996;BME280;59862;47.732;7.346;2023-12-07T12:50:55;98167.94;;;5.08;100.00
71996;BME280;59862;47.732;7.346;2023-12-07T12:53:22;98166.68;;;5.39;100.00
71996;BME280;59862;47.732;7.346;2023-12-07T12:55:51;98160.62;;;5.33;100.00
71996;BME280;59862;47.732;7.346;2023-12-07T12:58:19;98166.89;;;5.56;100.00
71996;BME280;59862;47.732;7.346;2023-12-07T13:00:48;98171.88;;;5.18;100.00
71996;BME280;59862;47.732;7.346;2023-12-07T13:03:16;98166.78;;;5.61;100.00
71996;BME280;59862;47.732;7.346;2023-12-07T13:05:43;98164.67;;;5.24;100.00
71996;BME280;59862;47.732;7.346;2023-12-07T13:08:11;98155.69;;;5.25;100.00
71996;BME280;59862;47.732;7.346;2023-12-07T13:10:38;98162.23;;;4.94;100.00